N1AV Weather Reports


Display with metric or nautical units.
time (UTC)temp
F
wind
direction
speed
MPH
gust
MPH
rain 1hr
in
rain 24hr
in
rain mn
in
humidity
%
barometer
mb
20210916210135 102 241 0.0 0.0 0.00 0.00 0.00 16 1008.5
20210916204543 101 288 0.0 0.0 0.00 0.00 0.00 16 1008.7
20210916203101 100 247 0.0 0.0 0.00 0.00 0.00 17 1008.9
20210916201601 100 339 0.0 0.0 0.00 0.00 0.00 17 1009.2
20210916200115 101 151 0.0 0.0 0.00 0.00 0.00 16 1009.4
20210916194701 101 151 0.0 0.0 0.00 0.00 0.00 17 1009.4
20210916193118 100 181 0.0 0.0 0.00 0.00 0.00 17 1009.5
20210916191546 100 170 0.0 4.0 0.00 0.00 0.00 17 1009.7
20210916190044 99 107 0.0 0.0 0.00 0.00 0.00 17 1009.8
20210916184539 99 212 0.0 0.0 0.00 0.00 0.00 19 1009.9
20210916183059 98 156 0.0 0.0 0.00 0.00 0.00 18 1010.1
20210916181546 97 99 0.0 0.0 0.00 0.00 0.00 18 1010.3
20210916180026 97 153 0.0 0.0 0.00 0.00 0.00 19 1010.4
20210916174520 96 65 0.0 0.0 0.00 0.00 0.00 20 1010.5
20210916173030 95 167 0.0 4.0 0.00 0.00 0.00 20 1010.5
20210916171509 94 39 0.0 0.0 0.00 0.00 0.00 21 1010.6
20210916170004 93 114 0.0 0.0 0.00 0.00 0.00 20 1010.6
20210916164650 92 71 0.0 0.0 0.00 0.00 0.00 22 1010.6
20210916163207 90 56 0.0 0.0 0.00 0.00 0.00 24 1010.6
20210916161628 88 49 0.0 0.0 0.00 0.00 0.00 26 1010.6
20210916160125 87 121 0.0 3.0 0.00 0.00 0.00 28 1010.7
20210916154543 85 96 0.0 0.0 0.00 0.00 0.00 31 1010.5
20210916153045 83 58 0.0 1.0 0.00 0.00 0.00 30 1010.4
20210916151637 82 103 0.0 3.0 0.00 0.00 0.00 30 1010.3
20210916150030 81 94 0.0 0.0 0.00 0.00 0.00 31 1010.3
20210916144533 79 126 0.0 0.0 0.00 0.00 0.00 35 1010.2
20210916143114 76 146 0.0 0.0 0.00 0.00 0.00 40 1010.2
20210916141601 75 106 0.0 0.0 0.00 0.00 0.00 42 1010.1
20210916140100 74 47 0.0 0.0 0.00 0.00 0.00 39 1009.9
20210916134642 73 15 0.0 0.0 0.00 0.00 0.00 40 1009.7
20210916133050 71 346 0.0 0.0 0.00 0.00 0.00 42 1009.4
20210916131627 71 30 0.0 0.0 0.00 0.00 0.00 42 1009.3
20210916130103 71 23 0.0 0.0 0.00 0.00 0.00 42 1009.2
20210916124646 70 25 0.0 0.0 0.00 0.00 0.00 42 1009.1
20210916123109 70 49 0.0 0.0 0.00 0.00 0.00 42 1009.0
20210916121552 71 34 0.0 0.0 0.00 0.00 0.00 41 1008.9
20210916120057 72 52 0.0 0.0 0.00 0.00 0.00 39 1008.9
20210916114541 72 43 0.0 0.0 0.00 0.00 0.00 40 1008.8
20210916113030 72 70 0.0 0.0 0.00 0.00 0.00 40 1008.8
20210916111536 73 110 0.0 0.0 0.00 0.00 0.00 39 1008.7
20210916110057 73 102 0.0 0.0 0.00 0.00 0.00 37 1008.7
20210916104536 74 157 0.0 1.0 0.00 0.00 0.00 36 1008.7
20210916103019 74 50 0.0 0.0 0.00 0.00 0.00 36 1008.7
20210916101527 74 56 0.0 0.0 0.00 0.00 0.00 36 1008.7
20210916100014 75 117 0.0 0.0 0.00 0.00 0.00 36 1008.8
20210916094518 76 109 0.0 0.0 0.00 0.00 0.00 34 1008.8
20210916093011 75 40 0.0 0.0 0.00 0.00 0.00 34 1008.9
20210916091513 75 41 0.0 0.0 0.00 0.00 0.00 35 1008.9
20210916090008 75 44 0.0 0.0 0.00 0.00 0.00 34 1009.0
20210916084513 75 107 0.0 0.0 0.00 0.00 0.00 34 1009.2
20210916083006 75 69 0.0 0.0 0.00 0.00 0.00 34 1009.0
20210916081504 77 30 0.0 0.0 0.00 0.00 0.00 32 1008.9
20210916080013 76 35 0.0 0.0 0.00 0.00 0.00 33 1008.9
20210916074502 75 58 0.0 0.0 0.00 0.00 0.00 34 1009.2
20210916073141 76 42 0.0 0.0 0.00 0.00 0.00 35 1009.2
20210916071627 77 130 0.0 0.0 0.00 0.00 0.00 33 1009.3
20210916070140 79 44 0.0 0.0 0.00 0.00 0.00 29 1009.3
20210916064716 80 44 0.0 0.0 0.00 0.00 0.00 30 1009.2
20210916063105 79 44 0.0 0.0 0.00 0.00 0.00 30 1009.2
20210916061602 80 44 0.0 0.0 0.00 0.00 0.00 29 1009.2
20210916060146 80 44 0.0 0.0 0.00 0.00 0.00 29 1009.2
20210916054645 80 27 0.0 0.0 0.00 0.00 0.00 29 1009.0
20210916053202 81 28 0.0 0.0 0.00 0.00 0.00 29 1009.1
20210916051537 81 27 0.0 0.0 0.00 0.00 0.00 29 1009.1
20210916050027 81 14 0.0 0.0 0.00 0.00 0.00 30 1009.2
20210916044601 82 360 0.0 0.0 0.00 0.00 0.00 30 1009.2
20210916043019 83 360 0.0 0.0 0.00 0.00 0.00 28 1009.3
20210916041530 83 360 0.0 0.0 0.00 0.00 0.00 29 1009.1
20210916040033 86 359 0.0 0.0 0.00 0.00 0.00 29 1009.0
20210916034613 87 342 0.0 0.0 0.00 0.00 0.00 23 1008.9
20210916033052 88 342 0.0 0.0 0.00 0.00 0.00 22 1008.8
20210916031607 88 330 0.0 0.0 0.00 0.00 0.00 21 1008.9
20210916030052 89 282 0.0 0.0 0.00 0.00 0.00 20 1008.7
20210916024541 90 266 0.0 0.0 0.00 0.00 0.00 20 1008.7
20210916023102 90 265 0.0 0.0 0.00 0.00 0.00 20 1008.6
20210916021555 91 265 0.0 0.0 0.00 0.00 0.00 19 1008.4
20210916020042 93 265 0.0 0.0 0.00 0.00 0.00 18 1008.5
20210916014625 94 265 0.0 0.0 0.00 0.00 0.00 17 1008.3
20210916013053 96 250 0.0 0.0 0.00 0.00 0.00 16 1008.3
20210916011532 98 248 0.0 0.0 0.00 0.00 0.00 15 1008.2
20210916010102 99 249 0.0 0.0 0.00 0.00 0.00 14 1008.0
20210916004557 99 249 0.0 0.0 0.00 0.00 0.00 14 1008.1
20210916003102 100 248 1.0 9.0 0.00 0.00 0.00 14 1008.1
20210916001606 100 243 0.0 8.0 0.00 0.00 0.00 13 1008.2
20210916000056 100 250 1.0 10.0 0.00 0.00 0.00 13 1008.2
20210915234548 101 235 2.0 12.0 0.00 0.00 0.00 13 1008.2
20210915233039 101 316 0.0 0.0 0.00 0.00 0.00 13 1008.2
20210915231542 101 246 0.0 0.0 0.00 0.00 0.00 12 1008.3
20210915230037 101 236 0.0 10.0 0.00 0.00 0.00 13 1008.4
20210915224539 102 178 0.0 7.0 0.00 0.00 0.00 12 1008.3
20210915223022 102 243 0.0 13.0 0.00 0.00 0.00 13 1008.6
20210915221558 101 247 0.0 9.0 0.00 0.00 0.00 13 1008.8
20210915220149 101 236 1.0 16.0 0.00 0.00 0.00 14 1008.9
20210915214525 102 236 0.0 13.0 0.00 0.00 0.00 14 1009.0
20210915213012 101 239 0.0 10.0 0.00 0.00 0.00 15 1009.2
20210915211608 101 230 1.0 10.0 0.00 0.00 0.00 16 1009.4